createdAt,value
2023-05-05T00:01:03.361Z,3.40
2023-05-05T00:03:32.786Z,2.40
2023-05-05T00:06:01.939Z,3.08
2023-05-05T00:08:30.651Z,3.25
2023-05-05T00:11:00.675Z,3.30
2023-05-05T00:13:29.384Z,3.05
2023-05-05T00:15:58.046Z,2.67
2023-05-05T00:18:26.758Z,3.78
2023-05-05T00:20:55.970Z,3.38
2023-05-05T00:23:24.642Z,3.63
2023-05-05T00:25:53.361Z,3.35
2023-05-05T00:28:23.495Z,2.95
2023-05-05T00:30:52.206Z,2.70
2023-05-05T00:33:21.169Z,3.88
2023-05-05T00:35:49.829Z,2.70
2023-05-05T00:38:18.492Z,3.45
2023-05-05T00:40:47.158Z,3.38
2023-05-05T00:43:15.783Z,3.35
2023-05-05T00:45:47.899Z,3.35
2023-05-05T00:48:18.914Z,3.70
2023-05-05T00:50:47.590Z,3.35
2023-05-05T00:53:16.402Z,2.83
2023-05-05T00:55:45.242Z,3.20
2023-05-05T00:58:15.244Z,3.65
2023-05-05T01:00:44.466Z,3.08
2023-05-05T01:03:15.458Z,2.90
2023-05-05T01:05:51.468Z,3.40
2023-05-05T01:08:27.154Z,3.03
2023-05-05T01:10:58.528Z,3.35
2023-05-05T01:13:31.889Z,3.10
2023-05-05T01:16:03.643Z,2.85
2023-05-05T01:18:37.561Z,3.28
2023-05-05T01:21:08.824Z,3.42
2023-05-05T01:23:59.342Z,3.25
2023-05-05T01:26:39.177Z,3.10
2023-05-05T01:29:26.718Z,3.00
2023-05-05T01:31:57.168Z,3.15
2023-05-05T01:34:28.096Z,3.35
2023-05-05T01:37:00.290Z,2.95
2023-05-05T01:39:29.942Z,3.40
2023-05-05T01:42:00.139Z,3.08
2023-05-05T01:44:30.935Z,2.80
2023-05-05T01:47:01.322Z,3.03
2023-05-05T01:49:30.624Z,3.15
2023-05-05T01:52:00.243Z,2.75
2023-05-05T01:54:30.815Z,2.85
2023-05-05T01:57:00.815Z,3.40
2023-05-05T01:59:29.950Z,3.88
2023-05-05T02:01:59.206Z,2.88
2023-05-05T02:04:30.184Z,2.90
2023-05-05T02:07:00.048Z,3.30
2023-05-05T02:09:30.173Z,3.20
2023-05-05T02:12:00.140Z,3.20
2023-05-05T02:14:29.243Z,2.70
2023-05-05T02:16:58.995Z,2.88
2023-05-05T02:19:32.343Z,2.50
2023-05-05T02:22:01.038Z,2.83
2023-05-05T02:24:30.981Z,2.97
2023-05-05T02:27:00.213Z,2.85
2023-05-05T02:29:30.709Z,3.05
2023-05-05T02:32:01.931Z,2.60
2023-05-05T02:34:33.706Z,3.35
2023-05-05T02:37:04.800Z,3.58
2023-05-05T02:39:39.191Z,2.75
2023-05-05T02:42:15.055Z,2.90
2023-05-05T02:44:44.534Z,3.00
2023-05-05T02:47:14.121Z,3.15
2023-05-05T02:49:45.973Z,2.80
2023-05-05T02:52:14.718Z,3.53
2023-05-05T02:54:45.125Z,3.30
2023-05-05T02:57:20.286Z,2.65
2023-05-05T02:59:59.794Z,3.20
2023-05-05T03:02:30.186Z,3.08
2023-05-05T03:05:02.692Z,3.35
2023-05-05T03:07:34.806Z,3.08
2023-05-05T03:10:08.625Z,3.17
2023-05-05T03:12:44.974Z,2.95
2023-05-05T03:15:20.575Z,3.78
2023-05-05T03:17:50.281Z,3.60
2023-05-05T03:20:20.573Z,3.15
2023-05-05T03:22:50.850Z,2.95
2023-05-05T03:25:19.978Z,3.97
2023-05-05T03:27:49.562Z,3.03
2023-05-05T03:30:21.432Z,3.80
2023-05-05T03:32:53.021Z,2.97
2023-05-05T03:35:23.726Z,3.60
2023-05-05T03:37:52.500Z,3.92
2023-05-05T03:40:27.195Z,3.90
2023-05-05T03:43:01.885Z,3.70
2023-05-05T03:45:30.764Z,3.92
2023-05-05T03:47:59.948Z,3.30
2023-05-05T03:50:30.162Z,3.40
2023-05-05T03:52:58.883Z,3.55
2023-05-05T03:55:27.703Z,3.38
2023-05-05T03:57:56.530Z,3.13
2023-05-05T04:00:25.311Z,3.35
2023-05-05T04:02:54.153Z,2.95
2023-05-05T04:05:24.172Z,3.17
2023-05-05T04:07:54.519Z,3.22
2023-05-05T04:10:23.459Z,3.50
2023-05-05T04:12:52.434Z,3.55
2023-05-05T04:15:21.285Z,3.97
2023-05-05T04:17:50.104Z,3.70
2023-05-05T04:20:19.278Z,3.83
2023-05-05T04:22:48.097Z,3.53
2023-05-05T04:25:18.830Z,3.92
2023-05-05T04:27:48.997Z,3.28
2023-05-05T04:30:18.095Z,3.42
2023-05-05T04:32:47.502Z,3.70
2023-05-05T04:35:16.597Z,5.47
2023-05-05T04:37:46.206Z,5.22
2023-05-05T04:40:15.161Z,5.00
2023-05-05T04:42:45.531Z,4.15
2023-05-05T04:45:14.551Z,3.03
2023-05-05T04:47:43.301Z,3.08
2023-05-05T04:50:13.797Z,3.53
2023-05-05T04:52:42.562Z,3.22
2023-05-05T04:55:12.065Z,2.80
2023-05-05T04:57:40.917Z,3.33
2023-05-05T05:00:12.256Z,2.60
2023-05-05T05:02:41.576Z,3.03
2023-05-05T05:05:11.477Z,2.95
2023-05-05T05:07:40.854Z,3.55
2023-05-05T05:10:10.259Z,3.03
2023-05-05T05:12:39.538Z,3.67
2023-05-05T05:15:08.915Z,4.22
2023-05-05T05:17:39.258Z,3.42
2023-05-05T05:20:10.855Z,3.13
2023-05-05T05:22:41.064Z,2.30
2023-05-05T05:25:14.506Z,2.83
2023-05-05T05:27:43.665Z,2.75
2023-05-05T05:30:13.821Z,2.08
2023-05-05T05:32:44.039Z,1.90
2023-05-05T05:35:12.850Z,2.65
2023-05-05T05:37:41.786Z,2.50
2023-05-05T05:40:10.996Z,2.42
2023-05-05T05:42:41.975Z,2.28
2023-05-05T05:45:11.661Z,2.00
2023-05-05T05:47:41.075Z,2.10
2023-05-05T05:50:11.753Z,2.40
2023-05-05T05:52:40.632Z,2.03
2023-05-05T05:55:10.185Z,2.03
2023-05-05T05:57:40.228Z,1.90
2023-05-05T06:00:11.449Z,1.70
2023-05-05T06:02:45.897Z,2.35
2023-05-05T06:05:21.111Z,2.03
2023-05-05T06:07:51.755Z,2.38
2023-05-05T06:10:28.093Z,1.88
2023-05-05T06:13:02.982Z,2.40
2023-05-05T06:15:34.360Z,2.13
2023-05-05T06:18:05.095Z,2.50
2023-05-05T06:20:35.294Z,2.80
2023-05-05T06:23:04.174Z,2.85
2023-05-05T06:25:35.448Z,2.40
2023-05-05T06:28:05.754Z,2.58
2023-05-05T06:30:34.772Z,2.00
2023-05-05T06:33:03.617Z,2.35
2023-05-05T06:35:32.506Z,2.13
2023-05-05T06:38:02.537Z,2.13
2023-05-05T06:40:31.920Z,2.10
2023-05-05T06:43:00.615Z,2.17
2023-05-05T06:45:35.813Z,2.08
2023-05-05T06:48:04.487Z,3.50
2023-05-05T06:50:33.313Z,1.95
2023-05-05T06:53:03.554Z,2.08
2023-05-05T06:55:32.634Z,2.13
2023-05-05T06:58:01.339Z,2.13
2023-05-05T07:00:30.090Z,1.40
2023-05-05T07:02:58.839Z,1.73
2023-05-05T07:05:27.585Z,2.25
2023-05-05T07:07:56.764Z,1.48
2023-05-05T07:10:27.394Z,1.50
2023-05-05T07:12:56.597Z,1.33
2023-05-05T07:15:29.401Z,2.05
2023-05-05T07:17:58.606Z,1.60
2023-05-05T07:20:27.737Z,1.50
2023-05-05T07:22:56.587Z,1.75
2023-05-05T07:25:25.315Z,1.65
2023-05-05T07:27:55.372Z,1.45
2023-05-05T07:30:26.099Z,1.55
2023-05-05T07:32:55.560Z,1.30
2023-05-05T07:35:24.757Z,1.98
2023-05-05T07:37:53.355Z,1.83
2023-05-05T07:40:21.982Z,2.00
2023-05-05T07:42:51.016Z,1.70
2023-05-05T07:45:21.233Z,1.55
2023-05-05T07:47:50.085Z,1.60
2023-05-05T07:50:19.114Z,1.60
2023-05-05T07:52:53.994Z,1.50
2023-05-05T07:55:31.097Z,1.52
2023-05-05T07:57:59.814Z,1.63
2023-05-05T08:00:29.864Z,1.30
2023-05-05T08:02:58.769Z,1.58
2023-05-05T08:05:27.535Z,1.23
2023-05-05T08:07:56.742Z,1.77
2023-05-05T08:10:25.486Z,1.42
2023-05-05T08:12:54.927Z,1.40
2023-05-05T08:15:23.674Z,1.08
2023-05-05T08:17:55.809Z,1.25
2023-05-05T08:20:24.753Z,1.40
2023-05-05T08:22:53.487Z,1.67
2023-05-05T08:25:22.313Z,1.20
2023-05-05T08:27:51.103Z,1.20
2023-05-05T08:30:29.582Z,1.05
2023-05-05T08:33:00.627Z,0.82
2023-05-05T08:35:29.461Z,1.10
2023-05-05T08:37:59.313Z,0.90
2023-05-05T08:40:31.150Z,0.75
2023-05-05T08:42:59.931Z,0.90
2023-05-05T08:45:29.888Z,0.93
2023-05-05T08:48:00.288Z,1.15
2023-05-05T08:50:29.892Z,1.30
2023-05-05T08:53:04.933Z,0.98
2023-05-05T08:55:36.330Z,0.98
2023-05-05T08:58:05.108Z,1.17
2023-05-05T09:00:34.308Z,0.90
2023-05-05T09:03:04.771Z,1.00
2023-05-05T09:05:33.603Z,0.98
2023-05-05T09:08:02.406Z,1.20
2023-05-05T09:10:31.212Z,1.20
2023-05-05T09:13:00.035Z,1.70
2023-05-05T09:15:29.071Z,1.35
2023-05-05T09:17:59.096Z,1.25
2023-05-05T09:20:32.206Z,2.05
2023-05-05T09:23:08.736Z,1.13
2023-05-05T09:25:37.470Z,1.40
2023-05-05T09:28:12.990Z,1.20
2023-05-05T09:30:42.259Z,1.20
2023-05-05T09:33:11.543Z,1.65
2023-05-05T09:35:51.594Z,1.10
2023-05-05T09:38:20.645Z,1.20
2023-05-05T09:40:49.733Z,1.55
2023-05-05T09:43:18.497Z,1.42
2023-05-05T09:45:48.788Z,1.77
2023-05-05T09:48:27.229Z,1.10
2023-05-05T09:50:57.600Z,1.40
2023-05-05T09:53:26.673Z,1.35
2023-05-05T09:55:56.200Z,1.17
2023-05-05T09:58:26.161Z,1.30
2023-05-05T10:00:55.443Z,1.60
2023-05-05T10:03:24.473Z,1.30
2023-05-05T10:05:54.175Z,1.30
2023-05-05T10:08:25.330Z,1.10
2023-05-05T10:10:54.731Z,1.30
2023-05-05T10:13:24.735Z,1.17
2023-05-05T10:15:54.373Z,1.38
2023-05-05T10:18:24.505Z,1.27
2023-05-05T10:20:56.563Z,1.50
2023-05-05T10:23:29.675Z,1.40
2023-05-05T10:26:02.932Z,1.45
2023-05-05T10:28:33.941Z,1.45
2023-05-05T10:31:12.898Z,1.17
2023-05-05T10:33:51.342Z,1.20
2023-05-05T10:36:21.996Z,1.30
2023-05-05T10:38:52.213Z,1.40
2023-05-05T10:41:21.270Z,1.17
2023-05-05T10:43:50.350Z,1.25
2023-05-05T10:46:19.277Z,1.25
2023-05-05T10:48:51.360Z,1.40
2023-05-05T10:51:39.374Z,1.50
2023-05-05T10:54:13.271Z,1.33
2023-05-05T10:56:42.610Z,1.00
2023-05-05T10:59:26.153Z,0.90
2023-05-05T11:01:54.868Z,1.30
2023-05-05T11:04:24.184Z,1.10
2023-05-05T11:07:14.654Z,1.35
2023-05-05T11:09:57.394Z,1.10
2023-05-05T11:12:26.129Z,1.35
2023-05-05T11:15:13.398Z,1.50
2023-05-05T11:17:48.630Z,1.10
2023-05-05T11:20:17.698Z,1.48
2023-05-05T11:23:05.326Z,1.10
2023-05-05T11:25:51.574Z,0.82
2023-05-05T11:28:21.227Z,1.20
2023-05-05T11:31:08.403Z,1.50
2023-05-05T11:33:38.240Z,0.80
2023-05-05T11:36:07.896Z,1.10
2023-05-05T11:38:43.319Z,1.42
2023-05-05T11:41:14.754Z,1.48
2023-05-05T11:43:43.539Z,1.05
2023-05-05T11:46:12.816Z,0.90
2023-05-05T11:48:48.050Z,0.93
2023-05-05T11:51:17.281Z,1.02
2023-05-05T11:53:46.695Z,0.80
2023-05-05T11:56:19.355Z,1.00
2023-05-05T11:58:48.426Z,0.90
2023-05-05T12:01:17.495Z,1.00
2023-05-05T12:03:46.480Z,0.77
2023-05-05T12:06:15.297Z,0.90
2023-05-05T12:08:44.039Z,1.00
2023-05-05T12:11:13.224Z,0.90
2023-05-05T12:13:43.298Z,1.00
2023-05-05T12:16:12.849Z,0.90
2023-05-05T12:18:41.702Z,0.90
2023-05-05T12:21:16.465Z,1.58
2023-05-05T12:23:45.164Z,0.90
2023-05-05T12:26:26.176Z,0.90
2023-05-05T12:28:56.324Z,0.90
2023-05-05T12:31:25.263Z,1.05
2023-05-05T12:33:53.997Z,1.40
2023-05-05T12:36:22.814Z,1.10
2023-05-05T12:38:51.578Z,1.10
2023-05-05T12:41:21.253Z,1.40
2023-05-05T12:43:49.959Z,1.60
2023-05-05T12:46:20.116Z,0.90
2023-05-05T12:49:01.074Z,0.80
2023-05-05T12:51:29.842Z,0.70
2023-05-05T12:54:06.016Z,1.10
2023-05-05T12:56:35.596Z,0.85
2023-05-05T12:59:04.923Z,0.90
2023-05-05T13:01:35.507Z,0.85
2023-05-05T13:04:11.971Z,0.85
2023-05-05T13:06:41.152Z,0.82
2023-05-05T13:09:11.098Z,0.90
2023-05-05T13:11:40.101Z,0.90
2023-05-05T13:14:09.451Z,1.00
2023-05-05T13:16:39.542Z,0.80
2023-05-05T13:19:08.233Z,1.02
2023-05-05T13:21:36.930Z,1.00
2023-05-05T13:24:21.191Z,0.90
2023-05-05T13:26:55.822Z,1.00
2023-05-05T13:29:28.375Z,0.82
2023-05-05T13:32:00.703Z,1.00
2023-05-05T13:34:29.385Z,0.80
2023-05-05T13:36:58.222Z,0.90
2023-05-05T13:39:27.198Z,1.08
2023-05-05T13:41:55.948Z,1.00
2023-05-05T13:44:24.588Z,0.80
2023-05-05T13:46:53.388Z,1.08
2023-05-05T13:49:23.763Z,0.95
2023-05-05T13:51:52.405Z,0.90
2023-05-05T13:54:21.262Z,0.98
2023-05-05T13:56:50.002Z,0.90
2023-05-05T13:59:18.708Z,1.10
2023-05-05T14:01:47.363Z,0.85
2023-05-05T14:04:16.028Z,0.98
2023-05-05T14:06:46.212Z,1.00
2023-05-05T14:09:14.840Z,1.02
2023-05-05T14:11:43.598Z,0.80
2023-05-05T14:14:12.249Z,0.90
2023-05-05T14:16:41.163Z,1.05
2023-05-05T14:19:09.934Z,1.00
2023-05-05T14:21:38.578Z,0.95
2023-05-05T14:24:09.018Z,1.05
2023-05-05T14:26:37.812Z,0.80
2023-05-05T14:29:06.585Z,1.13
2023-05-05T14:31:36.256Z,1.15
2023-05-05T14:34:05.128Z,0.68
2023-05-05T14:36:33.902Z,0.93
2023-05-05T14:39:02.638Z,0.93
2023-05-05T14:41:32.840Z,0.98
2023-05-05T14:44:01.634Z,1.13
2023-05-05T14:46:31.360Z,1.20
2023-05-05T14:49:00.396Z,0.80
2023-05-05T14:51:29.085Z,0.90
2023-05-05T14:53:57.772Z,0.95
2023-05-05T14:56:28.181Z,0.75
2023-05-05T14:58:58.314Z,0.90
2023-05-05T15:01:26.978Z,1.17
2023-05-05T15:03:56.163Z,1.10
2023-05-05T15:06:24.939Z,1.35
2023-05-05T15:08:53.597Z,1.13
2023-05-05T15:11:22.469Z,1.30
2023-05-05T15:13:51.343Z,0.80
2023-05-05T15:16:21.444Z,0.82
2023-05-05T15:18:50.672Z,0.90
2023-05-05T15:21:19.433Z,0.82
2023-05-05T15:23:48.096Z,0.82
2023-05-05T15:26:16.741Z,0.90
2023-05-05T15:28:45.454Z,1.00
2023-05-05T15:31:14.180Z,0.90
2023-05-05T15:33:45.513Z,1.02
2023-05-05T15:36:14.566Z,1.15
2023-05-05T15:38:44.078Z,0.95
2023-05-05T15:41:12.727Z,0.80
2023-05-05T15:43:41.446Z,0.90
2023-05-05T15:46:10.097Z,1.00
2023-05-05T15:48:38.767Z,0.90
2023-05-05T15:51:08.817Z,1.25
2023-05-05T15:53:37.614Z,1.08
2023-05-05T15:56:06.673Z,0.95
2023-05-05T15:58:36.682Z,0.90
2023-05-05T16:01:05.490Z,1.02
2023-05-05T16:03:34.381Z,0.77
2023-05-05T16:06:03.201Z,0.85
2023-05-05T16:08:33.355Z,0.93
2023-05-05T16:11:02.440Z,0.90
2023-05-05T16:13:31.168Z,1.00
2023-05-05T16:15:59.802Z,1.10
2023-05-05T16:18:28.475Z,0.90
2023-05-05T16:20:57.230Z,1.30
2023-05-05T16:23:26.372Z,0.90
2023-05-05T16:25:56.742Z,0.90
2023-05-05T16:28:25.385Z,1.23
2023-05-05T16:30:54.084Z,0.77
2023-05-05T16:33:22.948Z,0.88
2023-05-05T16:35:51.667Z,1.00
2023-05-05T16:38:20.391Z,0.80
2023-05-05T16:40:49.587Z,1.00
2023-05-05T16:43:19.897Z,0.90
2023-05-05T16:45:48.582Z,0.65
2023-05-05T16:48:18.430Z,0.80
2023-05-05T16:50:47.163Z,1.10
2023-05-05T16:53:15.925Z,0.80
2023-05-05T16:55:44.651Z,0.95
2023-05-05T16:58:13.491Z,0.80
2023-05-05T17:00:46.684Z,0.95
2023-05-05T17:03:15.389Z,1.02
2023-05-05T17:05:44.214Z,1.17
2023-05-05T17:08:14.344Z,0.93
2023-05-05T17:10:43.091Z,0.90
2023-05-05T17:13:12.549Z,0.93
2023-05-05T17:15:41.470Z,1.08
2023-05-05T17:18:11.599Z,1.00
2023-05-05T17:20:40.371Z,1.00
2023-05-05T17:23:09.163Z,0.70
2023-05-05T17:25:37.930Z,0.90
2023-05-05T17:28:07.473Z,0.93
2023-05-05T17:30:37.563Z,0.90
2023-05-05T17:33:06.306Z,0.90
2023-05-05T17:35:36.855Z,1.08
2023-05-05T17:38:05.699Z,0.70
2023-05-05T17:40:34.479Z,0.77
2023-05-05T17:43:03.260Z,0.80
2023-05-05T17:45:32.011Z,0.88
2023-05-05T17:48:00.740Z,0.80
2023-05-05T17:50:29.583Z,0.80
2023-05-05T17:52:59.573Z,0.98
2023-05-05T17:55:28.508Z,0.90
2023-05-05T17:57:58.988Z,1.20
2023-05-05T18:00:27.687Z,1.00
2023-05-05T18:02:56.483Z,0.80
2023-05-05T18:05:25.293Z,0.98
2023-05-05T18:07:54.085Z,0.88
2023-05-05T18:10:24.228Z,0.98
2023-05-05T18:12:52.909Z,0.90
2023-05-05T18:15:21.612Z,0.90
2023-05-05T18:17:50.293Z,1.00
2023-05-05T18:20:19.043Z,0.70
2023-05-05T18:22:47.791Z,0.70
2023-05-05T18:25:16.611Z,0.70
2023-05-05T18:27:46.672Z,0.75
2023-05-05T18:30:15.534Z,0.90
2023-05-05T18:32:44.534Z,1.10
2023-05-05T18:35:13.506Z,1.05
2023-05-05T18:37:42.497Z,0.90
2023-05-05T18:40:12.319Z,0.90
2023-05-05T18:42:41.593Z,0.93
2023-05-05T18:45:12.576Z,0.70
2023-05-05T18:47:41.432Z,0.90
2023-05-05T18:50:10.916Z,0.88
2023-05-05T18:52:39.567Z,0.95
2023-05-05T18:55:08.814Z,1.00
2023-05-05T18:57:38.086Z,1.23
2023-05-05T19:00:07.268Z,0.93
2023-05-05T19:02:37.583Z,1.10
2023-05-05T19:05:06.974Z,1.00
2023-05-05T19:07:36.769Z,1.10
2023-05-05T19:10:05.982Z,1.00
2023-05-05T19:12:34.841Z,1.15
2023-05-05T19:15:03.606Z,0.85
2023-05-05T19:17:33.075Z,1.00
2023-05-05T19:20:03.254Z,0.90
2023-05-05T19:22:32.154Z,1.20
2023-05-05T19:25:00.818Z,1.13
2023-05-05T19:27:29.621Z,1.23
2023-05-05T19:29:58.321Z,1.13
2023-05-05T19:32:27.187Z,0.93
2023-05-05T19:34:56.002Z,1.10
2023-05-05T19:37:26.473Z,1.30
2023-05-05T19:39:55.243Z,1.10
2023-05-05T19:42:24.013Z,1.30
2023-05-05T19:44:52.706Z,1.10
2023-05-05T19:47:21.354Z,1.10
2023-05-05T19:49:50.238Z,1.20
2023-05-05T19:52:18.965Z,1.35
2023-05-05T19:54:49.066Z,1.25
2023-05-05T19:57:18.122Z,1.52
2023-05-05T19:59:48.564Z,1.80
2023-05-05T20:02:18.108Z,1.55
2023-05-05T20:04:47.098Z,1.70
2023-05-05T20:07:15.861Z,1.58
2023-05-05T20:09:45.095Z,1.73
2023-05-05T20:12:16.959Z,1.70
2023-05-05T20:14:45.732Z,1.30
2023-05-05T20:17:19.698Z,1.75
2023-05-05T20:19:48.653Z,1.52
2023-05-05T20:22:17.457Z,1.75
2023-05-05T20:24:46.386Z,1.70
2023-05-05T20:27:16.699Z,1.50
2023-05-05T20:29:45.426Z,1.30
2023-05-05T20:32:14.076Z,1.65
2023-05-05T20:34:42.791Z,1.80
2023-05-05T20:37:13.177Z,1.65
2023-05-05T20:39:43.817Z,2.10
2023-05-05T20:42:12.529Z,1.67
2023-05-05T20:44:42.860Z,1.48
2023-05-05T20:47:11.617Z,1.52
2023-05-05T20:49:40.481Z,1.77
2023-05-05T20:52:09.252Z,1.80
2023-05-05T20:54:39.112Z,2.03
2023-05-05T20:57:08.724Z,1.58
2023-05-05T20:59:37.639Z,1.70
2023-05-05T21:02:07.819Z,1.80
2023-05-05T21:04:36.581Z,1.92
2023-05-05T21:07:05.446Z,1.70
2023-05-05T21:09:35.298Z,2.00
2023-05-05T21:12:03.997Z,1.70
2023-05-05T21:14:32.771Z,1.58
2023-05-05T21:17:01.532Z,1.58
2023-05-05T21:19:31.736Z,1.80
2023-05-05T21:22:02.229Z,1.65
2023-05-05T21:24:31.178Z,1.38
2023-05-05T21:27:00.004Z,1.85
2023-05-05T21:29:28.706Z,1.48
2023-05-05T21:31:57.629Z,1.65
2023-05-05T21:34:26.245Z,1.50
2023-05-05T21:36:57.147Z,1.67
2023-05-05T21:39:25.873Z,1.52
2023-05-05T21:41:54.677Z,1.50
2023-05-05T21:44:23.346Z,2.03
2023-05-05T21:46:51.967Z,1.60
2023-05-05T21:49:20.727Z,1.45
2023-05-05T21:51:49.408Z,1.63
2023-05-05T21:54:19.438Z,1.70
2023-05-05T21:56:48.159Z,1.50
2023-05-05T21:59:17.434Z,1.60
2023-05-05T22:01:46.209Z,1.80
2023-05-05T22:04:14.904Z,1.80
2023-05-05T22:06:43.549Z,1.67
2023-05-05T22:09:12.302Z,2.05
2023-05-05T22:11:42.369Z,1.80
2023-05-05T22:14:11.048Z,1.73
2023-05-05T22:16:39.911Z,1.70
2023-05-05T22:19:08.782Z,1.77
2023-05-05T22:21:37.407Z,1.55
2023-05-05T22:24:07.234Z,1.95
2023-05-05T22:26:35.953Z,1.98
2023-05-05T22:29:06.148Z,2.10
2023-05-05T22:31:35.054Z,2.00
2023-05-05T22:34:03.798Z,1.77
2023-05-05T22:36:32.514Z,2.10
2023-05-05T22:39:01.268Z,2.00
2023-05-05T22:41:29.864Z,2.00
2023-05-05T22:43:58.572Z,1.98
2023-05-05T22:46:28.670Z,1.60
2023-05-05T22:48:57.462Z,1.85
2023-05-05T22:51:26.139Z,1.88
2023-05-05T22:53:54.789Z,1.65
2023-05-05T22:56:23.522Z,1.85
2023-05-05T22:58:52.273Z,1.92
2023-05-05T23:01:21.145Z,2.00
2023-05-05T23:03:51.417Z,1.88
2023-05-05T23:06:20.131Z,2.28
2023-05-05T23:08:49.314Z,2.03
2023-05-05T23:11:18.199Z,2.30
2023-05-05T23:13:47.006Z,2.33
2023-05-05T23:16:15.775Z,2.30
2023-05-05T23:18:44.593Z,2.60
2023-05-05T23:21:14.569Z,2.70
2023-05-05T23:23:43.266Z,2.97
2023-05-05T23:26:12.008Z,2.90
2023-05-05T23:28:40.629Z,3.50
2023-05-05T23:31:09.290Z,4.10
2023-05-05T23:33:37.999Z,3.70
2023-05-05T23:36:07.018Z,3.50
2023-05-05T23:38:37.038Z,3.88
2023-05-05T23:41:05.881Z,3.38
2023-05-05T23:43:34.495Z,3.35
2023-05-05T23:46:03.250Z,2.95
2023-05-05T23:48:32.189Z,2.60
2023-05-05T23:51:00.897Z,3.28
2023-05-05T23:53:29.537Z,2.55
2023-05-05T23:56:00.041Z,2.53
2023-05-05T23:58:28.766Z,2.50
